createdAt,value
2016-06-01T00:00:36.772Z,18.91
2016-06-01T00:01:36.900Z,18.9
2016-06-01T00:02:36.731Z,18.84
2016-06-01T00:03:36.703Z,18.83
2016-06-01T00:04:36.689Z,18.73
2016-06-01T00:05:36.677Z,18.73
2016-06-01T00:06:36.819Z,18.77
2016-06-01T00:07:36.791Z,18.76
2016-06-01T00:08:36.950Z,18.59
2016-06-01T00:09:36.765Z,18.62
2016-06-01T00:10:36.759Z,18.68
2016-06-01T00:11:36.788Z,18.67
2016-06-01T00:12:36.613Z,18.61
2016-06-01T00:13:36.783Z,18.64
2016-06-01T00:14:36.780Z,18.65
2016-06-01T00:15:36.780Z,18.62
2016-06-01T00:16:36.776Z,18.58
2016-06-01T00:17:36.757Z,18.54
2016-06-01T00:18:36.754Z,18.52
2016-06-01T00:19:36.735Z,18.5
2016-06-01T00:20:36.727Z,18.46
2016-06-01T00:21:36.702Z,18.5
2016-06-01T00:22:36.708Z,18.39
2016-06-01T00:23:37.182Z,18.4
2016-06-01T00:24:37.049Z,18.39
2016-06-01T00:25:36.692Z,18.36
2016-06-01T00:26:36.634Z,18.31
2016-06-01T00:27:36.622Z,18.22
2016-06-01T00:28:36.611Z,18.25
2016-06-01T00:29:36.583Z,18.25
2016-06-01T00:30:36.415Z,18.25
2016-06-01T00:31:36.558Z,18.25
2016-06-01T00:32:36.374Z,18.17
2016-06-01T00:33:36.517Z,18.25
2016-06-01T00:34:36.520Z,18.19
2016-06-01T00:35:36.320Z,18.13
2016-06-01T00:36:36.464Z,18.21
2016-06-01T00:37:36.451Z,18.1
2016-06-01T00:38:36.781Z,18.12
2016-06-01T00:39:36.503Z,18.1
2016-06-01T00:40:36.381Z,18.12
2016-06-01T00:41:36.368Z,18.02
2016-06-01T00:42:36.339Z,18.02
2016-06-01T00:43:36.170Z,18.03
2016-06-01T00:44:36.313Z,18.09
2016-06-01T00:45:36.300Z,18.02
2016-06-01T00:46:36.272Z,17.95
2016-06-01T00:47:36.274Z,17.95
2016-06-01T00:48:36.230Z,17.99
2016-06-01T00:49:36.233Z,18
2016-06-01T00:50:36.205Z,17.91
2016-06-01T00:51:36.176Z,17.89
2016-06-01T00:52:36.163Z,17.88
2016-06-01T00:53:36.150Z,17.84
2016-06-01T00:54:36.543Z,17.81
2016-06-01T00:55:36.093Z,17.87
2016-06-01T00:56:35.924Z,17.85
2016-06-01T00:57:36.051Z,17.81
2016-06-01T00:58:35.898Z,17.91
2016-06-01T00:59:36.026Z,17.82
2016-06-01T01:00:36.012Z,17.79
2016-06-01T01:01:35.984Z,17.88
2016-06-01T01:02:35.971Z,17.84
2016-06-01T01:03:35.943Z,17.84
2016-06-01T01:04:35.929Z,17.85
2016-06-01T01:05:35.761Z,17.85
2016-06-01T01:06:35.888Z,17.85
2016-06-01T01:07:35.719Z,17.87
2016-06-01T01:08:35.862Z,17.89
2016-06-01T01:09:36.615Z,17.85
2016-06-01T01:10:35.820Z,17.85
2016-06-01T01:11:35.792Z,17.87
2016-06-01T01:12:35.780Z,17.87
2016-06-01T01:13:35.750Z,17.87
2016-06-01T01:14:35.738Z,17.87
2016-06-01T01:15:35.725Z,17.82
2016-06-01T01:16:35.712Z,17.81
2016-06-01T01:17:35.527Z,17.82
2016-06-01T01:18:35.686Z,17.69
2016-06-01T01:19:35.641Z,17.73
2016-06-01T01:20:35.629Z,17.71
2016-06-01T01:21:35.600Z,17.7
2016-06-01T01:22:35.588Z,17.74
2016-06-01T01:23:35.793Z,17.71
2016-06-01T01:24:35.843Z,17.76
2016-06-01T01:25:35.518Z,17.7
2016-06-01T01:26:35.520Z,17.76
2016-06-01T01:27:35.491Z,17.78
2016-06-01T01:28:35.479Z,17.71
2016-06-01T01:29:35.451Z,17.76
2016-06-01T01:30:35.437Z,17.74
2016-06-01T01:31:35.423Z,17.74
2016-06-01T01:32:35.395Z,17.71
2016-06-01T01:33:35.226Z,17.71
2016-06-01T01:34:35.354Z,17.7
2016-06-01T01:35:35.341Z,17.74
2016-06-01T01:36:35.328Z,17.7
2016-06-01T01:37:35.300Z,17.74
2016-06-01T01:38:35.287Z,17.71
2016-06-01T01:39:35.273Z,17.67
2016-06-01T01:40:35.230Z,17.66
2016-06-01T01:41:35.216Z,17.63
2016-06-01T01:42:35.203Z,17.63
2016-06-01T01:43:35.050Z,17.63
2016-06-01T01:44:35.162Z,17.57
2016-06-01T01:45:35.149Z,17.63
2016-06-01T01:46:35.136Z,17.57
2016-06-01T01:47:35.124Z,17.64
2016-06-01T01:48:35.095Z,17.51
2016-06-01T01:49:35.066Z,17.5
2016-06-01T01:50:35.053Z,17.48
2016-06-01T01:51:35.025Z,17.53
2016-06-01T01:52:35.012Z,17.53
2016-06-01T01:53:34.843Z,17.46
2016-06-01T01:54:35.235Z,17.53
2016-06-01T01:55:34.801Z,17.57
2016-06-01T01:56:34.929Z,17.5
2016-06-01T01:57:34.916Z,17.47
2016-06-01T01:58:34.887Z,17.43
2016-06-01T01:59:34.718Z,17.47
2016-06-01T02:00:34.862Z,17.4
2016-06-01T02:01:34.848Z,17.36
2016-06-01T02:02:34.820Z,17.48
2016-06-01T02:03:34.791Z,17.33
2016-06-01T02:04:34.779Z,17.3
2016-06-01T02:05:34.765Z,17.33
2016-06-01T02:06:34.581Z,17.32
2016-06-01T02:07:34.724Z,17.29
2016-06-01T02:08:35.211Z,17.3
2016-06-01T02:09:34.541Z,17.29
2016-06-01T02:10:34.686Z,17.33
2016-06-01T02:11:34.656Z,17.3
2016-06-01T02:12:34.644Z,17.25
2016-06-01T02:13:34.615Z,17.22
2016-06-01T02:14:34.446Z,17.07
2016-06-01T02:15:34.558Z,17.18
2016-06-01T02:16:34.545Z,17.11
2016-06-01T02:17:34.533Z,17.1
2016-06-01T02:18:34.519Z,17.14
2016-06-01T02:19:34.491Z,17.25
2016-06-01T02:20:34.477Z,17.17
2016-06-01T02:21:34.449Z,17.22
2016-06-01T02:22:34.436Z,17.13
2016-06-01T02:23:34.454Z,17.08
2016-06-01T02:24:34.380Z,17.13
2016-06-01T02:25:34.382Z,17.11
2016-06-01T02:26:34.368Z,17.08
2016-06-01T02:27:34.340Z,17.07
2016-06-01T02:28:34.327Z,17.08
2016-06-01T02:29:34.298Z,17.06
2016-06-01T02:30:34.302Z,17.04
2016-06-01T02:31:34.258Z,17.11
2016-06-01T02:32:34.228Z,17.08
2016-06-01T02:33:34.216Z,17.13
2016-06-01T02:34:34.187Z,17.15
2016-06-01T02:35:34.034Z,17.17
2016-06-01T02:36:34.146Z,17.08
2016-06-01T02:37:34.148Z,17.17
2016-06-01T02:38:34.135Z,17.18
2016-06-01T02:39:34.106Z,17.13
2016-06-01T02:40:34.078Z,17.13
2016-06-01T02:41:34.065Z,17.11
2016-06-01T02:42:33.897Z,17.25
2016-06-01T02:43:34.025Z,17.1
2016-06-01T02:44:33.995Z,17.26
2016-06-01T02:45:33.982Z,17.23
2016-06-01T02:46:33.953Z,17.25
2016-06-01T02:47:33.941Z,17.23
2016-06-01T02:48:33.772Z,17.25
2016-06-01T02:49:33.994Z,17.3
2016-06-01T02:50:34.058Z,17.33
2016-06-01T02:51:33.701Z,17.28
2016-06-01T02:52:33.860Z,17.23
2016-06-01T02:53:34.145Z,17.28
2016-06-01T02:54:33.882Z,17.3
2016-06-01T02:55:33.853Z,17.26
2016-06-01T02:56:33.825Z,17.36
2016-06-01T02:57:33.749Z,17.32
2016-06-01T02:58:33.564Z,17.33
2016-06-01T02:59:33.693Z,17.44
2016-06-01T03:00:33.695Z,17.36
2016-06-01T03:01:33.666Z,17.35
2016-06-01T03:02:33.654Z,17.47
2016-06-01T03:03:33.468Z,17.47
2016-06-01T03:04:33.470Z,17.4
2016-06-01T03:05:33.427Z,17.47
2016-06-01T03:06:33.570Z,17.57
2016-06-01T03:07:33.542Z,17.47
2016-06-01T03:08:33.607Z,17.47
2016-06-01T03:09:33.640Z,17.53
2016-06-01T03:10:33.347Z,17.57
2016-06-01T03:11:33.333Z,17.54
2016-06-01T03:12:33.446Z,17.53
2016-06-01T03:13:33.433Z,17.55
2016-06-01T03:14:33.420Z,17.57
2016-06-01T03:15:33.406Z,17.66
2016-06-01T03:16:33.378Z,17.63
2016-06-01T03:17:33.209Z,17.62
2016-06-01T03:18:33.040Z,17.64
2016-06-01T03:19:33.324Z,17.62
2016-06-01T03:20:33.295Z,17.66
2016-06-01T03:21:33.127Z,17.71
2016-06-01T03:22:33.269Z,17.7
2016-06-01T03:23:34.647Z,17.74
2016-06-01T03:24:33.478Z,17.78
2016-06-01T03:25:33.059Z,17.74
2016-06-01T03:26:33.202Z,17.78
2016-06-01T03:27:33.174Z,17.78
2016-06-01T03:28:33.146Z,17.81
2016-06-01T03:29:33.116Z,17.81
2016-06-01T03:30:32.947Z,17.81
2016-06-01T03:31:32.935Z,17.82
2016-06-01T03:32:32.922Z,17.78
2016-06-01T03:33:33.049Z,17.88
2016-06-01T03:34:32.879Z,17.87
2016-06-01T03:35:33.007Z,17.82
2016-06-01T03:36:32.995Z,17.91
2016-06-01T03:37:32.966Z,17.91
2016-06-01T03:38:34.204Z,17.91
2016-06-01T03:39:32.940Z,17.87
2016-06-01T03:40:32.755Z,17.89
2016-06-01T03:41:32.898Z,17.92
2016-06-01T03:42:32.870Z,18.03
2016-06-01T03:43:32.857Z,18
2016-06-01T03:44:32.845Z,18.04
2016-06-01T03:45:32.817Z,18.04
2016-06-01T03:46:32.646Z,18.13
2016-06-01T03:47:32.789Z,18.03
2016-06-01T03:48:32.761Z,18.1
2016-06-01T03:49:32.733Z,18.07
2016-06-01T03:50:32.719Z,18.07
2016-06-01T03:51:32.708Z,18.15
2016-06-01T03:52:32.537Z,18.15
2016-06-01T03:53:32.525Z,18.17
2016-06-01T03:54:32.887Z,18.18
2016-06-01T03:55:32.624Z,18.28
2016-06-01T03:56:32.611Z,18.19
2016-06-01T03:57:32.427Z,18.22
2016-06-01T03:58:32.569Z,18.24
2016-06-01T03:59:32.557Z,18.25
2016-06-01T04:00:32.371Z,18.25
2016-06-01T04:01:32.515Z,18.24
2016-06-01T04:02:32.487Z,18.36
2016-06-01T04:03:32.490Z,18.34
2016-06-01T04:04:32.461Z,18.33
2016-06-01T04:05:32.447Z,18.34
2016-06-01T04:06:32.419Z,18.28
2016-06-01T04:07:32.407Z,18.34
2016-06-01T04:08:33.831Z,18.37
2016-06-01T04:09:32.959Z,18.33
2016-06-01T04:10:32.337Z,18.39
2016-06-01T04:11:32.323Z,18.42
2016-06-01T04:12:32.310Z,18.42
2016-06-01T04:13:32.298Z,18.47
2016-06-01T04:14:32.269Z,18.5
2016-06-01T04:15:32.100Z,18.54
2016-06-01T04:16:32.071Z,18.49
2016-06-01T04:17:32.214Z,18.49
2016-06-01T04:18:32.186Z,18.57
2016-06-01T04:19:32.016Z,18.62
2016-06-01T04:20:32.020Z,18.58
2016-06-01T04:21:31.991Z,18.59
2016-06-01T04:22:32.119Z,18.55
2016-06-01T04:23:32.214Z,18.67
2016-06-01T04:24:32.202Z,18.64
2016-06-01T04:25:32.063Z,18.67
2016-06-01T04:26:32.052Z,18.64
2016-06-01T04:27:32.022Z,18.7
2016-06-01T04:28:32.010Z,18.67
2016-06-01T04:29:31.980Z,18.7
2016-06-01T04:30:32.000Z,18.64
2016-06-01T04:31:31.954Z,18.65
2016-06-01T04:32:31.927Z,18.67
2016-06-01T04:33:31.929Z,18.74
2016-06-01T04:34:31.901Z,18.68
2016-06-01T04:35:31.888Z,18.68
2016-06-01T04:36:31.859Z,18.72
2016-06-01T04:37:31.674Z,18.65
2016-06-01T04:38:32.537Z,18.79
2016-06-01T04:39:31.821Z,18.73
2016-06-01T04:40:31.620Z,18.62
2016-06-01T04:41:31.763Z,18.65
2016-06-01T04:42:31.609Z,18.67
2016-06-01T04:43:31.737Z,18.74
2016-06-01T04:44:31.709Z,18.77
2016-06-01T04:45:31.727Z,18.86
2016-06-01T04:46:31.683Z,18.77
2016-06-01T04:47:31.498Z,18.8
2016-06-01T04:48:31.485Z,18.84
2016-06-01T04:49:31.629Z,18.77
2016-06-01T04:50:31.475Z,18.82
2016-06-01T04:51:31.586Z,18.84
2016-06-01T04:52:31.575Z,18.86
2016-06-01T04:53:32.530Z,18.94
2016-06-01T04:54:32.219Z,18.87
2016-06-01T04:55:31.505Z,18.86
2016-06-01T04:56:31.491Z,18.87
2016-06-01T04:57:31.478Z,18.9
2016-06-01T04:58:31.449Z,18.9
2016-06-01T04:59:31.437Z,18.87
2016-06-01T05:00:31.408Z,18.92
2016-06-01T05:01:31.239Z,18.9
2016-06-01T05:02:31.382Z,18.91
2016-06-01T05:03:31.369Z,18.91
2016-06-01T05:04:31.341Z,18.95
2016-06-01T05:05:31.327Z,18.92
2016-06-01T05:06:31.299Z,18.92
2016-06-01T05:07:31.287Z,19.06
2016-06-01T05:08:31.321Z,18.92
2016-06-01T05:09:31.449Z,18.9
2016-06-01T05:10:31.248Z,19.02
2016-06-01T05:11:31.218Z,19.06
2016-06-01T05:12:31.190Z,18.98
2016-06-01T05:13:31.178Z,18.99
2016-06-01T05:14:31.164Z,19.06
2016-06-01T05:15:31.136Z,19.02
2016-06-01T05:16:31.123Z,19.14
2016-06-01T05:17:31.110Z,19.08
2016-06-01T05:18:30.941Z,19.01
2016-06-01T05:19:31.069Z,19.01
2016-06-01T05:20:31.056Z,19.02
2016-06-01T05:21:30.871Z,19.01
2016-06-01T05:22:30.858Z,18.98
2016-06-01T05:23:31.266Z,18.99
2016-06-01T05:24:30.942Z,19.08
2016-06-01T05:25:30.803Z,19.1
2016-06-01T05:26:30.947Z,19.13
2016-06-01T05:27:30.919Z,19.13
2016-06-01T05:28:30.905Z,19.17
2016-06-01T05:29:30.877Z,19.13
2016-06-01T05:30:30.864Z,19.18
2016-06-01T05:31:30.835Z,19.2
2016-06-01T05:32:30.838Z,19.18
2016-06-01T05:33:30.810Z,19.15
2016-06-01T05:34:30.780Z,19.18
2016-06-01T05:35:30.768Z,19.17
2016-06-01T05:36:30.755Z,19.15
2016-06-01T05:37:30.743Z,19.23
2016-06-01T05:38:30.573Z,19.24
2016-06-01T05:39:30.560Z,19.33
2016-06-01T05:40:30.687Z,19.32
2016-06-01T05:41:30.659Z,19.28
2016-06-01T05:42:30.365Z,19.25
2016-06-01T05:43:30.633Z,19.2
2016-06-01T05:44:30.604Z,19.32
2016-06-01T05:45:30.592Z,19.28
2016-06-01T05:46:30.423Z,19.21
2016-06-01T05:47:30.565Z,19.29
2016-06-01T05:48:30.537Z,19.32
2016-06-01T05:49:30.509Z,19.33
2016-06-01T05:50:30.496Z,19.2
2016-06-01T05:51:30.483Z,19.29
2016-06-01T05:52:30.470Z,19.23
2016-06-01T05:53:30.441Z,19.25
2016-06-01T05:54:31.131Z,19.24
2016-06-01T05:55:30.259Z,19.35
2016-06-01T05:56:30.387Z,19.35
2016-06-01T05:57:30.233Z,19.35
2016-06-01T05:58:30.361Z,19.36
2016-06-01T05:59:30.348Z,19.38
2016-06-01T06:00:30.180Z,19.35
2016-06-01T06:01:30.307Z,19.42
2016-06-01T06:02:30.310Z,19.38
2016-06-01T06:03:30.281Z,19.38
2016-06-01T06:04:30.252Z,19.4
2016-06-01T06:05:30.238Z,19.4
2016-06-01T06:06:30.210Z,19.48
2016-06-01T06:07:30.041Z,19.42
2016-06-01T06:08:30.466Z,19.43
2016-06-01T06:09:30.156Z,19.5
2016-06-01T06:10:29.987Z,19.55
2016-06-01T06:11:30.130Z,19.48
2016-06-01T06:12:30.102Z,19.47
2016-06-01T06:13:30.105Z,19.54
2016-06-01T06:14:30.060Z,19.46
2016-06-01T06:15:30.047Z,19.6
2016-06-01T06:16:29.878Z,19.57
2016-06-01T06:17:30.021Z,19.53
2016-06-01T06:18:29.836Z,19.57
2016-06-01T06:19:29.980Z,19.6
2016-06-01T06:20:29.967Z,19.63
2016-06-01T06:21:29.781Z,19.69
2016-06-01T06:22:29.925Z,19.83
2016-06-01T06:23:30.335Z,19.94
2016-06-01T06:24:30.369Z,19.94
2016-06-01T06:25:29.887Z,19.91
2016-06-01T06:26:29.874Z,19.91
2016-06-01T06:27:29.845Z,19.94
2016-06-01T06:28:29.660Z,19.91
2016-06-01T06:29:29.804Z,19.93
2016-06-01T06:30:29.806Z,19.88
2016-06-01T06:31:29.762Z,19.93
2016-06-01T06:32:29.749Z,19.95
2016-06-01T06:33:29.721Z,19.9
2016-06-01T06:34:29.708Z,19.87
2016-06-01T06:35:29.695Z,19.94
2016-06-01T06:36:29.666Z,19.93
2016-06-01T06:37:29.654Z,19.9
2016-06-01T06:38:29.718Z,19.83
2016-06-01T06:39:29.627Z,19.91
2016-06-01T06:40:29.599Z,20.03
2016-06-01T06:41:29.586Z,20.02
2016-06-01T06:42:29.574Z,20.05
2016-06-01T06:43:29.560Z,20.1
2016-06-01T06:44:29.532Z,20.18
2016-06-01T06:45:29.518Z,20.1
2016-06-01T06:46:29.349Z,20.12
2016-06-01T06:47:29.477Z,20.12
2016-06-01T06:48:29.464Z,20.21
2016-06-01T06:49:29.279Z,20.13
2016-06-01T06:50:29.267Z,20.23
2016-06-01T06:51:29.410Z,20.23
2016-06-01T06:52:29.381Z,20.35
2016-06-01T06:53:29.383Z,20.46
2016-06-01T06:54:29.214Z,20.39
2016-06-01T06:55:29.342Z,20.41
2016-06-01T06:56:29.330Z,20.43
2016-06-01T06:57:29.301Z,20.31
2016-06-01T06:58:29.289Z,20.24
2016-06-01T06:59:29.275Z,20.28
2016-06-01T07:00:29.261Z,20.28
2016-06-01T07:01:29.233Z,20.33
2016-06-01T07:02:29.205Z,20.33
2016-06-01T07:03:29.036Z,20.31
2016-06-01T07:04:29.023Z,20.35
2016-06-01T07:05:29.167Z,20.33
2016-06-01T07:06:28.997Z,20.33
2016-06-01T07:07:29.140Z,20.35
2016-06-01T07:08:28.816Z,20.47
2016-06-01T07:09:29.115Z,20.47
2016-06-01T07:10:29.086Z,20.5
2016-06-01T07:11:28.901Z,20.49
2016-06-01T07:12:29.044Z,20.5
2016-06-01T07:13:29.032Z,20.62
2016-06-01T07:14:29.018Z,20.66
2016-06-01T07:15:28.990Z,20.66
2016-06-01T07:16:28.976Z,20.58
2016-06-01T07:17:28.965Z,20.65
2016-06-01T07:18:28.935Z,20.79
2016-06-01T07:19:28.923Z,20.77
2016-06-01T07:20:28.910Z,20.91
2016-06-01T07:21:28.897Z,20.98
2016-06-01T07:22:28.712Z,20.95
2016-06-01T07:23:28.886Z,21.01
2016-06-01T07:24:28.545Z,21.11
2016-06-01T07:25:28.814Z,21.11
2016-06-01T07:26:28.645Z,21.17
2016-06-01T07:27:28.788Z,21.11
2016-06-01T07:28:28.775Z,21.04
2016-06-01T07:29:28.762Z,21.08
2016-06-01T07:30:28.733Z,20.95
2016-06-01T07:31:28.720Z,20.84
2016-06-01T07:32:28.708Z,20.89
2016-06-01T07:33:28.539Z,20.95
2016-06-01T07:34:28.666Z,21.04
2016-06-01T07:35:28.716Z,21.01
2016-06-01T07:36:28.922Z,21.06
2016-06-01T07:37:28.643Z,21.2
2016-06-01T07:38:28.301Z,21.17
2016-06-01T07:39:28.757Z,21.17
2016-06-01T07:40:28.604Z,21.2
2016-06-01T07:41:28.544Z,21.3
2016-06-01T07:42:28.532Z,21.26
2016-06-01T07:43:28.550Z,21.16
2016-06-01T07:44:28.505Z,21.19
2016-06-01T07:45:28.492Z,21.21
2016-06-01T07:46:28.479Z,21.29
2016-06-01T07:47:28.451Z,21.38
2016-06-01T07:48:28.454Z,21.29
2016-06-01T07:49:28.426Z,21.32
2016-06-01T07:50:28.256Z,21.26
2016-06-01T07:51:30.196Z,21.24
2016-06-01T07:52:28.370Z,21.29
2016-06-01T07:53:28.451Z,21.23
2016-06-01T07:54:28.345Z,21.26
2016-06-01T07:55:28.176Z,21.19
2016-06-01T07:56:28.178Z,21.21
2016-06-01T07:57:28.290Z,21.24
2016-06-01T07:58:28.278Z,21.19
2016-06-01T07:59:28.264Z,21.19
2016-06-01T08:00:28.237Z,21.16
2016-06-01T08:01:28.222Z,21.2
2016-06-01T08:02:28.225Z,21.2
2016-06-01T08:03:28.197Z,21.26
2016-06-01T08:04:28.169Z,21.14
2016-06-01T08:05:28.140Z,21.19
2016-06-01T08:06:28.158Z,21.3
2016-06-01T08:07:28.114Z,21.19
2016-06-01T08:08:28.102Z,21.42
2016-06-01T08:09:28.338Z,21.36
2016-06-01T08:10:28.075Z,21.45
2016-06-01T08:11:27.906Z,21.34
2016-06-01T08:12:28.049Z,21.44
2016-06-01T08:13:28.021Z,21.48
2016-06-01T08:14:28.008Z,21.39
2016-06-01T08:15:27.980Z,21.35
2016-06-01T08:16:27.966Z,21.36
2016-06-01T08:17:27.969Z,21.45
2016-06-01T08:18:27.940Z,21.29
2016-06-01T08:19:27.912Z,21.17
2016-06-01T08:20:27.899Z,21.3
2016-06-01T08:21:27.887Z,21.24
2016-06-01T08:22:27.874Z,21.24
2016-06-01T08:23:27.845Z,21.17
2016-06-01T08:24:27.769Z,21.14
2016-06-01T08:25:27.820Z,21.16
2016-06-01T08:26:27.806Z,21.17
2016-06-01T08:27:27.793Z,21.16
2016-06-01T08:28:27.764Z,21.13
2016-06-01T08:29:27.751Z,21.14
2016-06-01T08:30:27.739Z,21.11
2016-06-01T08:31:27.726Z,21.16
2016-06-01T08:32:27.713Z,21.09
2016-06-01T08:33:27.683Z,21.09
2016-06-01T08:34:27.672Z,21.13
2016-06-01T08:35:27.517Z,21.16
2016-06-01T08:36:27.474Z,21.24
2016-06-01T08:37:27.617Z,21.38
2016-06-01T08:38:27.447Z,21.38
2016-06-01T08:39:28.450Z,21.42
2016-06-01T08:40:27.422Z,21.48
2016-06-01T08:41:27.565Z,21.44
2016-06-01T08:42:27.380Z,21.38
2016-06-01T08:43:27.524Z,21.3
2016-06-01T08:44:27.355Z,21.3
2016-06-01T08:45:27.482Z,21.36
2016-06-01T08:46:27.329Z,21.34
2016-06-01T08:47:27.457Z,21.46
2016-06-01T08:48:27.444Z,21.56
2016-06-01T08:49:27.430Z,21.5
2016-06-01T08:50:27.401Z,21.57
2016-06-01T08:51:27.232Z,21.61
2016-06-01T08:52:27.376Z,21.66
2016-06-01T08:53:27.363Z,21.71
2016-06-01T08:54:27.413Z,21.66
2016-06-01T08:55:27.321Z,21.69
2016-06-01T08:56:27.309Z,21.71
2016-06-01T08:57:27.296Z,21.69
2016-06-01T08:58:27.267Z,21.78
2016-06-01T08:59:27.253Z,21.75
2016-06-01T09:00:27.242Z,21.82
2016-06-01T09:01:27.228Z,21.82
2016-06-01T09:02:27.200Z,21.85
2016-06-01T09:03:27.203Z,21.88
2016-06-01T09:04:27.189Z,21.91
2016-06-01T09:05:27.161Z,21.82
2016-06-01T09:06:26.976Z,22.06
2016-06-01T09:07:27.119Z,21.98
2016-06-01T09:08:27.106Z,22.09
2016-06-01T09:09:27.046Z,22.19
2016-06-01T09:10:27.065Z,22.25
2016-06-01T09:11:27.052Z,22.39
2016-06-01T09:12:27.039Z,22.54
2016-06-01T09:13:27.042Z,22.54
2016-06-01T09:14:27.013Z,22.77
2016-06-01T09:15:27.001Z,22.89
2016-06-01T09:16:27.013Z,23.05
2016-06-01T09:17:27.009Z,23.17
2016-06-01T09:18:27.035Z,23.31
2016-06-01T09:19:27.063Z,23.39
2016-06-01T09:20:27.056Z,23.43
2016-06-01T09:21:27.037Z,23.49
2016-06-01T09:22:27.031Z,23.6
2016-06-01T09:23:27.028Z,23.53
2016-06-01T09:24:27.023Z,23.57
2016-06-01T09:25:27.003Z,23.53
2016-06-01T09:26:26.993Z,23.6
2016-06-01T09:27:26.984Z,23.72
2016-06-01T09:28:26.973Z,23.61
2016-06-01T09:29:26.948Z,23.7
2016-06-01T09:30:26.798Z,23.62
2016-06-01T09:31:26.926Z,23.76
2016-06-01T09:32:26.931Z,23.89
2016-06-01T09:33:26.903Z,23.9
2016-06-01T09:34:26.891Z,23.87
2016-06-01T09:35:26.879Z,23.87
2016-06-01T09:36:26.866Z,23.97
2016-06-01T09:37:26.854Z,24.04
2016-06-01T09:38:26.669Z,24.08
2016-06-01T09:39:26.969Z,24.14
2016-06-01T09:40:26.660Z,24.13
2016-06-01T09:41:26.648Z,24.1
2016-06-01T09:42:26.792Z,23.92
2016-06-01T09:43:26.762Z,23.95
2016-06-01T09:44:26.750Z,23.85
2016-06-01T09:45:26.722Z,23.79
2016-06-01T09:46:26.725Z,23.62
2016-06-01T09:47:26.712Z,23.71
2016-06-01T09:48:26.699Z,23.6
2016-06-01T09:49:26.686Z,23.42
2016-06-01T09:50:26.673Z,23.19
2016-06-01T09:51:26.660Z,22.99
2016-06-01T09:52:26.632Z,22.94
2016-06-01T09:53:26.494Z,22.83
2016-06-01T09:54:26.621Z,22.84
2016-06-01T09:55:26.609Z,22.89
2016-06-01T09:56:26.580Z,23.02
2016-06-01T09:57:26.567Z,23.02
2016-06-01T09:58:26.553Z,23.09
2016-06-01T09:59:26.525Z,23.14
2016-06-01T10:00:26.528Z,23.19
2016-06-01T10:01:26.500Z,23.15
2016-06-01T10:02:26.487Z,23.17
2016-06-01T10:03:26.474Z,23.2
2016-06-01T10:04:26.148Z,23.19
2016-06-01T10:05:26.277Z,23.17
2016-06-01T10:06:26.419Z,23.17
2016-06-01T10:07:26.422Z,23.07
2016-06-01T10:08:26.393Z,23.08
2016-06-01T10:09:26.396Z,22.99
2016-06-01T10:10:26.368Z,23.05
2016-06-01T10:11:26.027Z,22.94
2016-06-01T10:12:26.342Z,22.9
2016-06-01T10:13:26.313Z,22.82
2016-06-01T10:14:26.315Z,22.84
2016-06-01T10:15:26.304Z,22.84
2016-06-01T10:16:26.274Z,22.87
2016-06-01T10:17:26.245Z,22.97
2016-06-01T10:18:26.248Z,22.94
2016-06-01T10:19:26.220Z,23.04
2016-06-01T10:20:26.051Z,23.11
2016-06-01T10:21:26.194Z,23.23
2016-06-01T10:22:26.181Z,23.35
2016-06-01T10:23:26.168Z,23.46
2016-06-01T10:24:26.156Z,23.7
2016-06-01T10:25:26.799Z,23.71
2016-06-01T10:26:25.958Z,23.65
2016-06-01T10:27:26.100Z,23.79
2016-06-01T10:28:26.103Z,23.72
2016-06-01T10:29:26.075Z,23.85
2016-06-01T10:30:26.062Z,23.87
2016-06-01T10:31:26.049Z,23.92
2016-06-01T10:32:26.036Z,24.1
2016-06-01T10:33:26.023Z,24.14
2016-06-01T10:34:26.011Z,24.34
2016-06-01T10:35:25.982Z,24.32
2016-06-01T10:36:25.985Z,24.44
2016-06-01T10:37:25.971Z,24.47
2016-06-01T10:38:25.944Z,24.53
2016-06-01T10:39:26.524Z,24.49
2016-06-01T10:40:26.151Z,24.5
2016-06-01T10:41:25.905Z,24.34
2016-06-01T10:42:25.891Z,24.31
2016-06-01T10:43:25.879Z,24.2
2016-06-01T10:44:25.865Z,24.14
2016-06-01T10:45:25.852Z,24.16
2016-06-01T10:46:25.839Z,24.16
2016-06-01T10:47:25.686Z,23.92
2016-06-01T10:48:25.813Z,23.89
2016-06-01T10:49:25.801Z,23.67
2016-06-01T10:50:25.632Z,23.57
2016-06-01T10:51:25.760Z,23.71
2016-06-01T10:52:25.606Z,23.79
2016-06-01T10:53:25.748Z,23.7
2016-06-01T10:54:26.408Z,23.76
2016-06-01T10:55:25.739Z,23.61
2016-06-01T10:56:25.726Z,23.49
2016-06-01T10:57:25.681Z,23.47
2016-06-01T10:58:25.669Z,23.2
2016-06-01T10:59:25.500Z,22.94
2016-06-01T11:00:25.643Z,22.89
2016-06-01T11:01:25.631Z,22.87
2016-06-01T11:02:25.632Z,22.86
2016-06-01T11:03:25.588Z,22.77
2016-06-01T11:04:25.575Z,22.84
2016-06-01T11:05:25.563Z,22.87
2016-06-01T11:06:25.549Z,22.86
2016-06-01T11:07:25.536Z,22.75
2016-06-01T11:08:25.539Z,22.72
2016-06-01T11:09:25.792Z,22.59
2016-06-01T11:10:25.513Z,22.65
2016-06-01T11:11:25.469Z,22.54
2016-06-01T11:12:25.456Z,22.6
2016-06-01T11:13:25.443Z,22.54
2016-06-01T11:14:25.274Z,22.52
2016-06-01T11:15:25.418Z,22.56
2016-06-01T11:16:25.404Z,22.54
2016-06-01T11:17:25.391Z,22.56
2016-06-01T11:18:25.410Z,22.53
2016-06-01T11:19:25.366Z,22.54
2016-06-01T11:20:25.353Z,22.53
2016-06-01T11:21:25.324Z,22.52
2016-06-01T11:22:25.311Z,22.49
2016-06-01T11:23:25.298Z,22.62
2016-06-01T11:24:26.145Z,22.67
2016-06-01T11:25:25.742Z,22.75
2016-06-01T11:26:25.259Z,22.87
2016-06-01T11:27:25.231Z,22.97
2016-06-01T11:28:25.234Z,23.2
2016-06-01T11:29:25.221Z,23.24
2016-06-01T11:30:25.036Z,23.35
2016-06-01T11:31:25.178Z,23.39
2016-06-01T11:32:25.150Z,23.46
2016-06-01T11:33:25.138Z,23.6
2016-06-01T11:34:24.969Z,23.68
2016-06-01T11:35:25.112Z,23.79
2016-06-01T11:36:25.084Z,23.71
2016-06-01T11:37:25.086Z,23.85
2016-06-01T11:38:24.917Z,23.77
2016-06-01T11:39:25.045Z,23.68
2016-06-01T11:40:24.907Z,23.6
2016-06-01T11:41:24.721Z,23.76
2016-06-01T11:42:25.021Z,23.55
2016-06-01T11:43:25.008Z,23.64
2016-06-01T11:44:24.996Z,23.61
2016-06-01T11:45:24.811Z,23.76
2016-06-01T11:46:24.938Z,23.75
2016-06-01T11:47:24.941Z,23.79
2016-06-01T11:48:24.913Z,23.76
2016-06-01T11:49:24.915Z,23.9
2016-06-01T11:50:24.887Z,23.86
2016-06-01T11:51:24.890Z,23.94
2016-06-01T11:52:24.720Z,23.9
2016-06-01T11:53:24.863Z,23.92
2016-06-01T11:54:24.850Z,24.17
2016-06-01T11:55:25.712Z,24.16
2016-06-01T11:56:24.825Z,24.34
2016-06-01T11:57:24.796Z,24.41
2016-06-01T11:58:24.783Z,24.49
2016-06-01T11:59:24.614Z,24.49
2016-06-01T12:00:24.757Z,24.61
2016-06-01T12:01:24.729Z,24.64
2016-06-01T12:02:24.419Z,24.79
2016-06-01T12:03:24.562Z,24.88
2016-06-01T12:04:24.690Z,25.01
2016-06-01T12:05:24.678Z,25.06
2016-06-01T12:06:24.663Z,25.07
2016-06-01T12:07:24.651Z,25.27
2016-06-01T12:08:24.639Z,25.43
2016-06-01T12:09:25.547Z,25.5
2016-06-01T12:10:24.627Z,25.52
2016-06-01T12:11:24.631Z,25.52
2016-06-01T12:12:24.586Z,25.61
2016-06-01T12:13:24.574Z,25.74
2016-06-01T12:14:24.577Z,25.72
2016-06-01T12:15:24.563Z,25.72
2016-06-01T12:16:24.550Z,25.77
2016-06-01T12:17:24.521Z,25.69
2016-06-01T12:18:24.509Z,25.62
2016-06-01T12:19:24.496Z,25.57
2016-06-01T12:20:24.467Z,25.44
2016-06-01T12:21:24.470Z,25.31
2016-06-01T12:22:24.457Z,25.3
2016-06-01T12:23:24.288Z,25.1
2016-06-01T12:24:24.821Z,25.2
2016-06-01T12:25:24.465Z,25.27
2016-06-01T12:26:24.296Z,25.1
2016-06-01T12:27:24.392Z,25.24
2016-06-01T12:28:24.380Z,25.07
2016-06-01T12:29:24.367Z,25.17
2016-06-01T12:30:24.056Z,25.32
2016-06-01T12:31:24.341Z,25.52
2016-06-01T12:32:24.328Z,25.53
2016-06-01T12:33:24.314Z,25.72
2016-06-01T12:34:24.302Z,25.79
2016-06-01T12:35:24.289Z,26.06
2016-06-01T12:36:24.135Z,26.06
2016-06-01T12:37:24.264Z,26.08
2016-06-01T12:38:24.250Z,26.02
2016-06-01T12:39:24.237Z,26.06
2016-06-01T12:40:24.584Z,25.83
2016-06-01T12:41:24.211Z,25.8
2016-06-01T12:42:23.886Z,25.82
2016-06-01T12:43:24.311Z,25.71
2016-06-01T12:44:24.016Z,25.59
2016-06-01T12:45:24.159Z,25.47
2016-06-01T12:46:24.147Z,25.54
2016-06-01T12:47:24.149Z,25.52
2016-06-01T12:48:24.105Z,25.5
2016-06-01T12:49:24.108Z,25.44
2016-06-01T12:50:24.095Z,25.31
2016-06-01T12:51:23.926Z,25.19
2016-06-01T12:52:24.054Z,25.25
2016-06-01T12:53:24.057Z,25.16
2016-06-01T12:54:24.043Z,25.12
2016-06-01T12:55:23.749Z,25.25